sensor_id;sensor_type;location;lat;lon;timestamp;P1;durP1;ratioP1;P2;durP2;ratioP2
2622;SDS011;1321;48.690;9.022;2023-11-19T00:01:18;13.90;;;13.40;;
2622;SDS011;1321;48.690;9.022;2023-11-19T00:03:47;13.40;;;12.90;;
2622;SDS011;1321;48.690;9.022;2023-11-19T00:06:18;13.90;;;13.50;;
2622;SDS011;1321;48.690;9.022;2023-11-19T00:08:46;13.57;;;13.10;;
2622;SDS011;1321;48.690;9.022;2023-11-19T00:11:15;14.17;;;13.77;;
2622;SDS011;1321;48.690;9.022;2023-11-19T00:13:43;13.97;;;13.37;;
2622;SDS011;1321;48.690;9.022;2023-11-19T00:16:12;13.57;;;13.17;;
2622;SDS011;1321;48.690;9.022;2023-11-19T00:18:40;14.80;;;14.30;;
2622;SDS011;1321;48.690;9.022;2023-11-19T00:21:09;13.87;;;13.37;;
2622;SDS011;1321;48.690;9.022;2023-11-19T00:23:38;13.30;;;12.90;;
2622;SDS011;1321;48.690;9.022;2023-11-19T00:26:06;13.60;;;13.20;;
2622;SDS011;1321;48.690;9.022;2023-11-19T00:28:35;13.70;;;13.30;;
2622;SDS011;1321;48.690;9.022;2023-11-19T00:31:05;14.43;;;13.93;;
2622;SDS011;1321;48.690;9.022;2023-11-19T00:33:34;13.83;;;13.30;;
2622;SDS011;1321;48.690;9.022;2023-11-19T00:36:15;13.90;;;13.40;;
2622;SDS011;1321;48.690;9.022;2023-11-19T00:38:45;13.60;;;13.20;;
2622;SDS011;1321;48.690;9.022;2023-11-19T00:41:13;13.60;;;13.10;;
2622;SDS011;1321;48.690;9.022;2023-11-19T00:43:43;13.83;;;13.40;;
2622;SDS011;1321;48.690;9.022;2023-11-19T00:46:11;13.67;;;13.27;;
2622;SDS011;1321;48.690;9.022;2023-11-19T00:48:41;13.10;;;12.70;;
2622;SDS011;1321;48.690;9.022;2023-11-19T00:51:11;13.30;;;12.90;;
2622;SDS011;1321;48.690;9.022;2023-11-19T00:53:39;12.80;;;12.50;;
2622;SDS011;1321;48.690;9.022;2023-11-19T00:56:10;13.60;;;13.20;;
2622;SDS011;1321;48.690;9.022;2023-11-19T00:58:39;12.93;;;12.63;;
2622;SDS011;1321;48.690;9.022;2023-11-19T01:01:11;12.67;;;12.33;;
2622;SDS011;1321;48.690;9.022;2023-11-19T01:03:39;12.80;;;12.40;;
2622;SDS011;1321;48.690;9.022;2023-11-19T01:06:08;12.73;;;12.43;;
2622;SDS011;1321;48.690;9.022;2023-11-19T01:08:36;13.00;;;12.70;;
2622;SDS011;1321;48.690;9.022;2023-11-19T01:11:05;12.90;;;12.60;;
2622;SDS011;1321;48.690;9.022;2023-11-19T01:13:34;13.80;;;13.27;;
2622;SDS011;1321;48.690;9.022;2023-11-19T01:16:03;13.30;;;13.00;;
2622;SDS011;1321;48.690;9.022;2023-11-19T01:18:33;13.00;;;12.70;;
2622;SDS011;1321;48.690;9.022;2023-11-19T01:21:02;12.90;;;12.60;;
2622;SDS011;1321;48.690;9.022;2023-11-19T01:23:31;12.60;;;12.30;;
2622;SDS011;1321;48.690;9.022;2023-11-19T01:26:00;12.90;;;12.60;;
2622;SDS011;1321;48.690;9.022;2023-11-19T01:28:28;12.90;;;12.60;;
2622;SDS011;1321;48.690;9.022;2023-11-19T01:30:59;13.07;;;12.77;;
2622;SDS011;1321;48.690;9.022;2023-11-19T01:33:27;13.30;;;13.00;;
2622;SDS011;1321;48.690;9.022;2023-11-19T01:35:56;13.30;;;13.00;;
2622;SDS011;1321;48.690;9.022;2023-11-19T01:38:25;13.80;;;13.40;;
2622;SDS011;1321;48.690;9.022;2023-11-19T01:40:55;13.27;;;12.87;;
2622;SDS011;1321;48.690;9.022;2023-11-19T01:43:33;13.07;;;12.77;;
2622;SDS011;1321;48.690;9.022;2023-11-19T01:46:04;14.20;;;13.80;;
2622;SDS011;1321;48.690;9.022;2023-11-19T01:48:34;13.40;;;13.10;;
2622;SDS011;1321;48.690;9.022;2023-11-19T01:51:03;13.00;;;12.70;;
2622;SDS011;1321;48.690;9.022;2023-11-19T01:53:33;13.13;;;12.70;;
2622;SDS011;1321;48.690;9.022;2023-11-19T01:56:02;13.00;;;12.70;;
2622;SDS011;1321;48.690;9.022;2023-11-19T01:58:32;13.20;;;12.90;;
2622;SDS011;1321;48.690;9.022;2023-11-19T02:01:00;13.67;;;13.30;;
2622;SDS011;1321;48.690;9.022;2023-11-19T02:03:31;12.17;;;11.97;;
2622;SDS011;1321;48.690;9.022;2023-11-19T02:06:00;12.40;;;12.20;;
2622;SDS011;1321;48.690;9.022;2023-11-19T02:08:29;12.40;;;12.20;;
2622;SDS011;1321;48.690;9.022;2023-11-19T02:10:57;13.10;;;12.80;;
2622;SDS011;1321;48.690;9.022;2023-11-19T02:13:26;13.20;;;12.90;;
2622;SDS011;1321;48.690;9.022;2023-11-19T02:15:56;12.10;;;11.90;;
2622;SDS011;1321;48.690;9.022;2023-11-19T02:18:24;12.80;;;12.50;;
2622;SDS011;1321;48.690;9.022;2023-11-19T02:20:56;12.40;;;12.20;;
2622;SDS011;1321;48.690;9.022;2023-11-19T02:23:26;13.10;;;12.80;;
2622;SDS011;1321;48.690;9.022;2023-11-19T02:25:59;12.27;;;12.07;;
2622;SDS011;1321;48.690;9.022;2023-11-19T02:28:33;13.17;;;12.60;;
2622;SDS011;1321;48.690;9.022;2023-11-19T02:31:03;12.30;;;12.10;;
2622;SDS011;1321;48.690;9.022;2023-11-19T02:33:36;12.43;;;12.13;;
2622;SDS011;1321;48.690;9.022;2023-11-19T02:36:04;12.50;;;12.20;;
2622;SDS011;1321;48.690;9.022;2023-11-19T02:38:34;12.87;;;12.57;;
2622;SDS011;1321;48.690;9.022;2023-11-19T02:41:03;12.07;;;11.77;;
2622;SDS011;1321;48.690;9.022;2023-11-19T02:43:34;12.43;;;12.13;;
2622;SDS011;1321;48.690;9.022;2023-11-19T02:46:03;12.50;;;12.23;;
2622;SDS011;1321;48.690;9.022;2023-11-19T02:48:36;12.00;;;11.80;;
2622;SDS011;1321;48.690;9.022;2023-11-19T02:51:05;12.00;;;11.80;;
2622;SDS011;1321;48.690;9.022;2023-11-19T02:53:36;12.60;;;12.30;;
2622;SDS011;1321;48.690;9.022;2023-11-19T02:56:06;12.80;;;12.50;;
2622;SDS011;1321;48.690;9.022;2023-11-19T02:58:43;12.50;;;12.10;;
2622;SDS011;1321;48.690;9.022;2023-11-19T03:01:12;12.60;;;12.20;;
2622;SDS011;1321;48.690;9.022;2023-11-19T03:03:49;12.40;;;12.20;;
2622;SDS011;1321;48.690;9.022;2023-11-19T03:06:21;12.67;;;12.37;;
2622;SDS011;1321;48.690;9.022;2023-11-19T03:08:49;12.90;;;12.53;;
2622;SDS011;1321;48.690;9.022;2023-11-19T03:11:17;12.70;;;12.40;;
2622;SDS011;1321;48.690;9.022;2023-11-19T03:13:47;12.80;;;12.50;;
2622;SDS011;1321;48.690;9.022;2023-11-19T03:16:15;12.40;;;12.20;;
2622;SDS011;1321;48.690;9.022;2023-11-19T03:18:44;12.40;;;12.20;;
2622;SDS011;1321;48.690;9.022;2023-11-19T03:21:12;12.67;;;12.37;;
2622;SDS011;1321;48.690;9.022;2023-11-19T03:23:40;12.97;;;12.47;;
2622;SDS011;1321;48.690;9.022;2023-11-19T03:26:10;12.40;;;12.00;;
2622;SDS011;1321;48.690;9.022;2023-11-19T03:28:38;12.60;;;12.40;;
2622;SDS011;1321;48.690;9.022;2023-11-19T03:31:07;12.60;;;12.23;;
2622;SDS011;1321;48.690;9.022;2023-11-19T03:33:36;12.33;;;12.10;;
2622;SDS011;1321;48.690;9.022;2023-11-19T03:36:04;12.43;;;12.13;;
2622;SDS011;1321;48.690;9.022;2023-11-19T03:38:33;12.50;;;12.20;;
2622;SDS011;1321;48.690;9.022;2023-11-19T03:41:02;12.60;;;12.20;;
2622;SDS011;1321;48.690;9.022;2023-11-19T03:43:37;13.93;;;13.53;;
2622;SDS011;1321;48.690;9.022;2023-11-19T03:46:16;12.60;;;12.30;;
2622;SDS011;1321;48.690;9.022;2023-11-19T03:48:45;12.80;;;12.50;;
2622;SDS011;1321;48.690;9.022;2023-11-19T03:51:14;12.20;;;12.00;;
2622;SDS011;1321;48.690;9.022;2023-11-19T03:53:42;12.03;;;11.73;;
2622;SDS011;1321;48.690;9.022;2023-11-19T03:56:10;12.20;;;11.90;;
2622;SDS011;1321;48.690;9.022;2023-11-19T03:58:39;12.27;;;11.97;;
2622;SDS011;1321;48.690;9.022;2023-11-19T04:01:06;12.10;;;11.90;;
2622;SDS011;1321;48.690;9.022;2023-11-19T04:03:40;12.50;;;12.30;;
2622;SDS011;1321;48.690;9.022;2023-11-19T04:06:11;12.50;;;12.10;;
2622;SDS011;1321;48.690;9.022;2023-11-19T04:08:40;12.30;;;12.10;;
2622;SDS011;1321;48.690;9.022;2023-11-19T04:11:08;12.17;;;11.97;;
2622;SDS011;1321;48.690;9.022;2023-11-19T04:13:36;12.20;;;12.00;;
2622;SDS011;1321;48.690;9.022;2023-11-19T04:16:05;12.67;;;12.37;;
2622;SDS011;1321;48.690;9.022;2023-11-19T04:18:34;12.50;;;12.30;;
2622;SDS011;1321;48.690;9.022;2023-11-19T04:21:05;12.50;;;12.30;;
2622;SDS011;1321;48.690;9.022;2023-11-19T04:23:34;12.67;;;12.30;;
2622;SDS011;1321;48.690;9.022;2023-11-19T04:26:02;12.60;;;12.33;;
2622;SDS011;1321;48.690;9.022;2023-11-19T04:28:33;12.63;;;12.43;;
2622;SDS011;1321;48.690;9.022;2023-11-19T04:31:01;12.77;;;12.50;;
2622;SDS011;1321;48.690;9.022;2023-11-19T04:33:31;12.30;;;12.10;;
2622;SDS011;1321;48.690;9.022;2023-11-19T04:35:59;12.53;;;12.33;;
2622;SDS011;1321;48.690;9.022;2023-11-19T04:38:28;12.40;;;12.20;;
2622;SDS011;1321;48.690;9.022;2023-11-19T04:40:57;12.40;;;12.20;;
2622;SDS011;1321;48.690;9.022;2023-11-19T04:43:25;12.40;;;12.20;;
2622;SDS011;1321;48.690;9.022;2023-11-19T04:45:53;12.57;;;12.37;;
2622;SDS011;1321;48.690;9.022;2023-11-19T04:48:22;12.60;;;12.30;;
2622;SDS011;1321;48.690;9.022;2023-11-19T04:50:50;12.40;;;12.20;;
2622;SDS011;1321;48.690;9.022;2023-11-19T04:53:19;12.43;;;12.23;;
2622;SDS011;1321;48.690;9.022;2023-11-19T04:55:48;14.30;;;13.80;;
2622;SDS011;1321;48.690;9.022;2023-11-19T04:58:16;12.40;;;12.20;;
2622;SDS011;1321;48.690;9.022;2023-11-19T05:00:45;12.67;;;12.37;;
2622;SDS011;1321;48.690;9.022;2023-11-19T05:03:13;13.20;;;12.90;;
2622;SDS011;1321;48.690;9.022;2023-11-19T05:05:42;13.20;;;12.90;;
2622;SDS011;1321;48.690;9.022;2023-11-19T05:08:10;13.60;;;13.30;;
2622;SDS011;1321;48.690;9.022;2023-11-19T05:10:38;13.30;;;13.00;;
2622;SDS011;1321;48.690;9.022;2023-11-19T05:13:08;13.47;;;13.17;;
2622;SDS011;1321;48.690;9.022;2023-11-19T05:15:36;13.20;;;12.90;;
2622;SDS011;1321;48.690;9.022;2023-11-19T05:18:05;13.37;;;13.07;;
2622;SDS011;1321;48.690;9.022;2023-11-19T05:20:33;13.07;;;12.77;;
2622;SDS011;1321;48.690;9.022;2023-11-19T05:23:01;13.60;;;13.30;;
2622;SDS011;1321;48.690;9.022;2023-11-19T05:25:29;13.37;;;13.07;;
2622;SDS011;1321;48.690;9.022;2023-11-19T05:27:58;13.93;;;13.63;;
2622;SDS011;1321;48.690;9.022;2023-11-19T05:30:28;12.73;;;12.53;;
2622;SDS011;1321;48.690;9.022;2023-11-19T05:32:56;13.20;;;12.90;;
2622;SDS011;1321;48.690;9.022;2023-11-19T05:35:24;12.90;;;12.60;;
2622;SDS011;1321;48.690;9.022;2023-11-19T05:37:52;12.70;;;12.50;;
2622;SDS011;1321;48.690;9.022;2023-11-19T05:40:22;12.80;;;12.50;;
2622;SDS011;1321;48.690;9.022;2023-11-19T05:42:50;12.83;;;12.60;;
2622;SDS011;1321;48.690;9.022;2023-11-19T05:45:18;13.13;;;12.83;;
2622;SDS011;1321;48.690;9.022;2023-11-19T05:47:48;12.90;;;12.60;;
2622;SDS011;1321;48.690;9.022;2023-11-19T05:50:18;13.40;;;13.10;;
2622;SDS011;1321;48.690;9.022;2023-11-19T05:52:46;13.10;;;12.80;;
2622;SDS011;1321;48.690;9.022;2023-11-19T05:55:15;13.40;;;13.10;;
2622;SDS011;1321;48.690;9.022;2023-11-19T05:57:43;13.50;;;13.20;;
2622;SDS011;1321;48.690;9.022;2023-11-19T06:00:12;13.50;;;13.20;;
2622;SDS011;1321;48.690;9.022;2023-11-19T06:02:42;13.80;;;13.50;;
2622;SDS011;1321;48.690;9.022;2023-11-19T06:05:12;14.03;;;13.73;;
2622;SDS011;1321;48.690;9.022;2023-11-19T06:07:40;13.70;;;13.40;;
2622;SDS011;1321;48.690;9.022;2023-11-19T06:10:09;14.03;;;13.73;;
2622;SDS011;1321;48.690;9.022;2023-11-19T06:12:39;13.53;;;13.23;;
2622;SDS011;1321;48.690;9.022;2023-11-19T06:15:08;14.03;;;13.73;;
2622;SDS011;1321;48.690;9.022;2023-11-19T06:17:36;13.90;;;13.50;;
2622;SDS011;1321;48.690;9.022;2023-11-19T06:20:05;13.87;;;13.57;;
2622;SDS011;1321;48.690;9.022;2023-11-19T06:22:35;14.00;;;13.70;;
2622;SDS011;1321;48.690;9.022;2023-11-19T06:25:04;13.60;;;13.30;;
2622;SDS011;1321;48.690;9.022;2023-11-19T06:27:34;13.67;;;13.33;;
2622;SDS011;1321;48.690;9.022;2023-11-19T06:30:03;13.83;;;13.50;;
2622;SDS011;1321;48.690;9.022;2023-11-19T06:32:32;14.17;;;13.77;;
2622;SDS011;1321;48.690;9.022;2023-11-19T06:35:00;13.70;;;13.40;;
2622;SDS011;1321;48.690;9.022;2023-11-19T06:37:28;13.70;;;13.40;;
2622;SDS011;1321;48.690;9.022;2023-11-19T06:39:57;14.40;;;14.00;;
2622;SDS011;1321;48.690;9.022;2023-11-19T06:42:26;14.23;;;13.83;;
2622;SDS011;1321;48.690;9.022;2023-11-19T06:44:54;13.73;;;13.40;;
2622;SDS011;1321;48.690;9.022;2023-11-19T06:47:25;13.87;;;13.47;;
2622;SDS011;1321;48.690;9.022;2023-11-19T06:49:54;13.73;;;13.43;;
2622;SDS011;1321;48.690;9.022;2023-11-19T06:52:22;13.80;;;13.50;;
2622;SDS011;1321;48.690;9.022;2023-11-19T06:54:51;14.20;;;13.90;;
2622;SDS011;1321;48.690;9.022;2023-11-19T06:57:35;13.70;;;13.30;;
2622;SDS011;1321;48.690;9.022;2023-11-19T07:00:03;13.60;;;13.30;;
2622;SDS011;1321;48.690;9.022;2023-11-19T07:02:33;13.67;;;13.37;;
2622;SDS011;1321;48.690;9.022;2023-11-19T07:05:01;13.97;;;13.60;;
2622;SDS011;1321;48.690;9.022;2023-11-19T07:07:31;14.93;;;14.17;;
2622;SDS011;1321;48.690;9.022;2023-11-19T07:09:59;13.90;;;13.60;;
2622;SDS011;1321;48.690;9.022;2023-11-19T07:12:28;14.00;;;13.50;;
2622;SDS011;1321;48.690;9.022;2023-11-19T07:14:58;14.00;;;13.70;;
2622;SDS011;1321;48.690;9.022;2023-11-19T07:17:26;14.03;;;13.73;;
2622;SDS011;1321;48.690;9.022;2023-11-19T07:19:54;14.30;;;13.90;;
2622;SDS011;1321;48.690;9.022;2023-11-19T07:22:26;14.90;;;14.30;;
2622;SDS011;1321;48.690;9.022;2023-11-19T07:24:56;15.00;;;14.60;;
2622;SDS011;1321;48.690;9.022;2023-11-19T07:27:25;14.50;;;14.10;;
2622;SDS011;1321;48.690;9.022;2023-11-19T07:29:54;14.17;;;13.87;;
2622;SDS011;1321;48.690;9.022;2023-11-19T07:32:24;14.87;;;14.40;;
2622;SDS011;1321;48.690;9.022;2023-11-19T07:34:52;14.00;;;13.70;;
2622;SDS011;1321;48.690;9.022;2023-11-19T07:37:20;14.57;;;14.17;;
2622;SDS011;1321;48.690;9.022;2023-11-19T07:39:51;13.90;;;13.60;;
2622;SDS011;1321;48.690;9.022;2023-11-19T07:42:20;15.13;;;14.33;;
2622;SDS011;1321;48.690;9.022;2023-11-19T07:44:49;15.13;;;14.63;;
2622;SDS011;1321;48.690;9.022;2023-11-19T07:47:17;14.20;;;13.80;;
2622;SDS011;1321;48.690;9.022;2023-11-19T07:49:47;14.10;;;13.80;;
2622;SDS011;1321;48.690;9.022;2023-11-19T07:52:15;14.50;;;13.93;;
2622;SDS011;1321;48.690;9.022;2023-11-19T07:54:46;14.20;;;13.80;;
2622;SDS011;1321;48.690;9.022;2023-11-19T07:57:14;14.33;;;13.93;;
2622;SDS011;1321;48.690;9.022;2023-11-19T07:59:42;14.57;;;13.97;;
2622;SDS011;1321;48.690;9.022;2023-11-19T08:02:11;14.30;;;13.90;;
2622;SDS011;1321;48.690;9.022;2023-11-19T08:04:39;14.20;;;13.80;;
2622;SDS011;1321;48.690;9.022;2023-11-19T08:07:12;14.37;;;13.93;;
2622;SDS011;1321;48.690;9.022;2023-11-19T08:09:41;14.47;;;14.07;;
2622;SDS011;1321;48.690;9.022;2023-11-19T08:12:09;14.30;;;13.90;;
2622;SDS011;1321;48.690;9.022;2023-11-19T08:14:37;13.80;;;13.50;;
2622;SDS011;1321;48.690;9.022;2023-11-19T08:17:05;13.90;;;13.60;;
2622;SDS011;1321;48.690;9.022;2023-11-19T08:19:34;13.47;;;13.17;;
2622;SDS011;1321;48.690;9.022;2023-11-19T08:22:02;13.77;;;13.47;;
2622;SDS011;1321;48.690;9.022;2023-11-19T08:24:32;13.97;;;13.67;;
2622;SDS011;1321;48.690;9.022;2023-11-19T08:27:00;13.87;;;13.57;;
2622;SDS011;1321;48.690;9.022;2023-11-19T08:29:29;14.10;;;13.80;;
2622;SDS011;1321;48.690;9.022;2023-11-19T08:31:57;14.40;;;14.00;;
2622;SDS011;1321;48.690;9.022;2023-11-19T08:34:28;14.17;;;13.77;;
2622;SDS011;1321;48.690;9.022;2023-11-19T08:36:57;14.60;;;14.20;;
2622;SDS011;1321;48.690;9.022;2023-11-19T08:39:25;14.50;;;14.10;;
2622;SDS011;1321;48.690;9.022;2023-11-19T08:41:54;14.90;;;14.50;;
2622;SDS011;1321;48.690;9.022;2023-11-19T08:44:23;14.40;;;14.00;;
2622;SDS011;1321;48.690;9.022;2023-11-19T08:46:51;14.63;;;14.23;;
2622;SDS011;1321;48.690;9.022;2023-11-19T08:49:19;14.70;;;14.30;;
2622;SDS011;1321;48.690;9.022;2023-11-19T08:51:48;14.53;;;14.13;;
2622;SDS011;1321;48.690;9.022;2023-11-19T08:54:16;14.53;;;14.20;;
2622;SDS011;1321;48.690;9.022;2023-11-19T08:56:49;14.70;;;14.30;;
2622;SDS011;1321;48.690;9.022;2023-11-19T08:59:18;15.00;;;14.60;;
2622;SDS011;1321;48.690;9.022;2023-11-19T09:01:47;14.80;;;14.30;;
2622;SDS011;1321;48.690;9.022;2023-11-19T09:04:15;14.60;;;14.20;;
2622;SDS011;1321;48.690;9.022;2023-11-19T09:06:43;14.70;;;14.30;;
2622;SDS011;1321;48.690;9.022;2023-11-19T09:09:11;14.60;;;14.20;;
2622;SDS011;1321;48.690;9.022;2023-11-19T09:11:40;14.60;;;14.20;;
2622;SDS011;1321;48.690;9.022;2023-11-19T09:14:09;14.80;;;14.40;;
2622;SDS011;1321;48.690;9.022;2023-11-19T09:16:38;14.90;;;14.50;;
2622;SDS011;1321;48.690;9.022;2023-11-19T09:19:06;14.70;;;14.30;;
2622;SDS011;1321;48.690;9.022;2023-11-19T09:21:35;14.70;;;14.30;;
2622;SDS011;1321;48.690;9.022;2023-11-19T09:24:05;15.00;;;14.60;;
2622;SDS011;1321;48.690;9.022;2023-11-19T09:26:34;14.67;;;14.27;;
2622;SDS011;1321;48.690;9.022;2023-11-19T09:29:06;14.07;;;13.67;;
2622;SDS011;1321;48.690;9.022;2023-11-19T09:31:34;15.10;;;14.70;;
2622;SDS011;1321;48.690;9.022;2023-11-19T09:34:03;15.33;;;14.93;;
2622;SDS011;1321;48.690;9.022;2023-11-19T09:36:32;15.60;;;15.10;;
2622;SDS011;1321;48.690;9.022;2023-11-19T09:39:00;15.00;;;14.60;;
2622;SDS011;1321;48.690;9.022;2023-11-19T09:41:29;15.40;;;15.00;;
2622;SDS011;1321;48.690;9.022;2023-11-19T09:43:58;15.00;;;14.60;;
2622;SDS011;1321;48.690;9.022;2023-11-19T09:46:26;15.20;;;14.80;;
2622;SDS011;1321;48.690;9.022;2023-11-19T09:48:55;15.30;;;14.80;;
2622;SDS011;1321;48.690;9.022;2023-11-19T09:51:27;15.20;;;14.80;;
2622;SDS011;1321;48.690;9.022;2023-11-19T09:53:56;15.80;;;15.30;;
2622;SDS011;1321;48.690;9.022;2023-11-19T09:56:24;16.33;;;15.77;;
2622;SDS011;1321;48.690;9.022;2023-11-19T09:58:54;16.80;;;16.20;;
2622;SDS011;1321;48.690;9.022;2023-11-19T10:01:22;16.40;;;15.90;;
2622;SDS011;1321;48.690;9.022;2023-11-19T10:03:55;16.30;;;15.70;;
2622;SDS011;1321;48.690;9.022;2023-11-19T10:06:24;16.13;;;15.63;;
2622;SDS011;1321;48.690;9.022;2023-11-19T10:08:55;16.10;;;15.60;;
2622;SDS011;1321;48.690;9.022;2023-11-19T10:11:23;16.40;;;15.90;;
2622;SDS011;1321;48.690;9.022;2023-11-19T10:13:52;16.50;;;16.00;;
2622;SDS011;1321;48.690;9.022;2023-11-19T10:16:27;16.20;;;15.70;;
2622;SDS011;1321;48.690;9.022;2023-11-19T10:18:57;17.00;;;16.40;;
2622;SDS011;1321;48.690;9.022;2023-11-19T10:21:25;16.80;;;16.20;;
2622;SDS011;1321;48.690;9.022;2023-11-19T10:23:56;16.50;;;16.10;;
2622;SDS011;1321;48.690;9.022;2023-11-19T10:26:27;16.67;;;16.07;;
2622;SDS011;1321;48.690;9.022;2023-11-19T10:28:56;16.10;;;15.70;;
2622;SDS011;1321;48.690;9.022;2023-11-19T10:31:24;16.23;;;15.53;;
2622;SDS011;1321;48.690;9.022;2023-11-19T10:33:53;15.90;;;15.50;;
2622;SDS011;1321;48.690;9.022;2023-11-19T10:36:21;16.10;;;15.70;;
2622;SDS011;1321;48.690;9.022;2023-11-19T10:38:52;15.90;;;15.50;;
2622;SDS011;1321;48.690;9.022;2023-11-19T10:41:28;16.50;;;15.97;;
2622;SDS011;1321;48.690;9.022;2023-11-19T10:43:58;15.90;;;15.40;;
2622;SDS011;1321;48.690;9.022;2023-11-19T10:46:36;15.80;;;15.40;;
2622;SDS011;1321;48.690;9.022;2023-11-19T10:49:06;15.70;;;15.30;;
2622;SDS011;1321;48.690;9.022;2023-11-19T10:51:34;15.50;;;15.10;;
2622;SDS011;1321;48.690;9.022;2023-11-19T10:54:03;15.27;;;14.77;;
2622;SDS011;1321;48.690;9.022;2023-11-19T10:56:34;14.97;;;14.57;;
2622;SDS011;1321;48.690;9.022;2023-11-19T10:59:02;15.00;;;14.60;;
2622;SDS011;1321;48.690;9.022;2023-11-19T11:01:49;13.70;;;13.30;;
2622;SDS011;1321;48.690;9.022;2023-11-19T11:04:22;14.60;;;14.10;;
2622;SDS011;1321;48.690;9.022;2023-11-19T11:06:53;17.07;;;16.57;;
2622;SDS011;1321;48.690;9.022;2023-11-19T11:09:25;17.00;;;16.50;;
2622;SDS011;1321;48.690;9.022;2023-11-19T11:11:55;15.03;;;14.30;;
2622;SDS011;1321;48.690;9.022;2023-11-19T11:14:25;15.80;;;15.23;;
2622;SDS011;1321;48.690;9.022;2023-11-19T11:16:55;15.60;;;15.10;;
2622;SDS011;1321;48.690;9.022;2023-11-19T11:19:25;15.70;;;15.10;;
2622;SDS011;1321;48.690;9.022;2023-11-19T11:21:54;15.47;;;15.07;;
2622;SDS011;1321;48.690;9.022;2023-11-19T11:24:28;15.77;;;15.27;;
2622;SDS011;1321;48.690;9.022;2023-11-19T11:30:23;14.33;;;13.83;;
2622;SDS011;1321;48.690;9.022;2023-11-19T11:33:04;14.17;;;13.77;;
2622;SDS011;1321;48.690;9.022;2023-11-19T11:35:51;14.33;;;13.87;;
2622;SDS011;1321;48.690;9.022;2023-11-19T11:38:28;14.40;;;14.00;;
2622;SDS011;1321;48.690;9.022;2023-11-19T11:41:16;14.00;;;13.60;;
2622;SDS011;1321;48.690;9.022;2023-11-19T11:43:48;15.23;;;14.53;;
2622;SDS011;1321;48.690;9.022;2023-11-19T11:49:26;15.30;;;14.70;;
2622;SDS011;1321;48.690;9.022;2023-11-19T11:52:00;14.90;;;14.50;;
2622;SDS011;1321;48.690;9.022;2023-11-19T11:54:30;15.23;;;14.83;;
2622;SDS011;1321;48.690;9.022;2023-11-19T11:57:09;15.60;;;15.10;;
2622;SDS011;1321;48.690;9.022;2023-11-19T11:59:48;15.70;;;15.30;;
2622;SDS011;1321;48.690;9.022;2023-11-19T12:02:18;15.03;;;14.70;;
2622;SDS011;1321;48.690;9.022;2023-11-19T12:04:48;13.70;;;13.37;;
2622;SDS011;1321;48.690;9.022;2023-11-19T12:07:18;14.20;;;13.80;;
2622;SDS011;1321;48.690;9.022;2023-11-19T12:09:48;13.47;;;13.13;;
2622;SDS011;1321;48.690;9.022;2023-11-19T12:12:21;13.90;;;13.50;;
2622;SDS011;1321;48.690;9.022;2023-11-19T12:15:07;13.73;;;13.33;;
2622;SDS011;1321;48.690;9.022;2023-11-19T12:17:46;13.80;;;13.40;;
2622;SDS011;1321;48.690;9.022;2023-11-19T12:20:19;13.93;;;13.50;;
2622;SDS011;1321;48.690;9.022;2023-11-19T12:22:53;13.67;;;13.30;;
2622;SDS011;1321;48.690;9.022;2023-11-19T12:25:24;13.47;;;13.17;;
2622;SDS011;1321;48.690;9.022;2023-11-19T12:27:53;13.70;;;13.30;;
2622;SDS011;1321;48.690;9.022;2023-11-19T12:30:23;13.80;;;13.40;;
2622;SDS011;1321;48.690;9.022;2023-11-19T12:32:53;13.53;;;13.23;;
2622;SDS011;1321;48.690;9.022;2023-11-19T12:35:22;15.30;;;14.80;;
2622;SDS011;1321;48.690;9.022;2023-11-19T12:37:51;14.30;;;13.80;;
2622;SDS011;1321;48.690;9.022;2023-11-19T12:40:21;13.70;;;13.40;;
2622;SDS011;1321;48.690;9.022;2023-11-19T12:42:50;13.73;;;13.43;;
2622;SDS011;1321;48.690;9.022;2023-11-19T12:45:21;13.87;;;13.57;;
2622;SDS011;1321;48.690;9.022;2023-11-19T12:48:03;14.67;;;13.63;;
2622;SDS011;1321;48.690;9.022;2023-11-19T12:53:18;14.00;;;13.60;;
2622;SDS011;1321;48.690;9.022;2023-11-19T12:55:46;13.80;;;13.40;;
2622;SDS011;1321;48.690;9.022;2023-11-19T12:58:30;13.90;;;13.40;;
2622;SDS011;1321;48.690;9.022;2023-11-19T13:01:01;14.00;;;13.60;;
2622;SDS011;1321;48.690;9.022;2023-11-19T13:03:30;14.00;;;13.60;;
2622;SDS011;1321;48.690;9.022;2023-11-19T13:06:03;14.60;;;14.20;;
2622;SDS011;1321;48.690;9.022;2023-11-19T13:08:37;14.30;;;13.70;;
2622;SDS011;1321;48.690;9.022;2023-11-19T13:11:06;14.00;;;13.70;;
2622;SDS011;1321;48.690;9.022;2023-11-19T13:13:54;13.83;;;13.43;;
2622;SDS011;1321;48.690;9.022;2023-11-19T13:16:25;14.60;;;14.10;;
2622;SDS011;1321;48.690;9.022;2023-11-19T13:18:55;14.00;;;13.70;;
2622;SDS011;1321;48.690;9.022;2023-11-19T13:21:24;14.20;;;13.80;;
2622;SDS011;1321;48.690;9.022;2023-11-19T13:23:53;14.00;;;13.70;;
2622;SDS011;1321;48.690;9.022;2023-11-19T13:26:21;14.53;;;14.10;;
2622;SDS011;1321;48.690;9.022;2023-11-19T13:28:49;14.50;;;14.10;;
2622;SDS011;1321;48.690;9.022;2023-11-19T13:31:18;15.60;;;15.00;;
2622;SDS011;1321;48.690;9.022;2023-11-19T13:33:47;14.27;;;13.77;;
2622;SDS011;1321;48.690;9.022;2023-11-19T13:36:16;14.20;;;13.80;;
2622;SDS011;1321;48.690;9.022;2023-11-19T13:38:44;13.83;;;13.40;;
2622;SDS011;1321;48.690;9.022;2023-11-19T13:41:13;14.07;;;13.57;;
2622;SDS011;1321;48.690;9.022;2023-11-19T13:43:41;14.40;;;14.00;;
2622;SDS011;1321;48.690;9.022;2023-11-19T13:46:10;14.83;;;14.30;;
2622;SDS011;1321;48.690;9.022;2023-11-19T13:48:39;14.40;;;14.00;;
2622;SDS011;1321;48.690;9.022;2023-11-19T13:51:08;14.30;;;13.90;;
2622;SDS011;1321;48.690;9.022;2023-11-19T13:53:37;14.10;;;13.70;;
2622;SDS011;1321;48.690;9.022;2023-11-19T13:56:08;14.30;;;13.80;;
2622;SDS011;1321;48.690;9.022;2023-11-19T13:58:36;14.87;;;14.20;;
2622;SDS011;1321;48.690;9.022;2023-11-19T14:01:04;14.67;;;14.27;;
2622;SDS011;1321;48.690;9.022;2023-11-19T14:03:34;14.80;;;14.40;;
2622;SDS011;1321;48.690;9.022;2023-11-19T14:06:02;14.83;;;14.30;;
2622;SDS011;1321;48.690;9.022;2023-11-19T14:08:32;14.20;;;13.80;;
2622;SDS011;1321;48.690;9.022;2023-11-19T14:11:00;14.10;;;13.70;;
2622;SDS011;1321;48.690;9.022;2023-11-19T14:13:28;14.50;;;14.10;;
2622;SDS011;1321;48.690;9.022;2023-11-19T14:15:57;14.47;;;13.97;;
2622;SDS011;1321;48.690;9.022;2023-11-19T14:18:25;14.50;;;14.03;;
2622;SDS011;1321;48.690;9.022;2023-11-19T14:20:53;14.33;;;13.83;;
2622;SDS011;1321;48.690;9.022;2023-11-19T14:23:21;14.20;;;13.80;;
2622;SDS011;1321;48.690;9.022;2023-11-19T14:25:52;14.00;;;13.70;;
2622;SDS011;1321;48.690;9.022;2023-11-19T14:28:20;14.53;;;14.03;;
2622;SDS011;1321;48.690;9.022;2023-11-19T14:30:48;14.70;;;14.20;;
2622;SDS011;1321;48.690;9.022;2023-11-19T14:33:23;14.10;;;13.70;;
2622;SDS011;1321;48.690;9.022;2023-11-19T14:35:51;14.40;;;14.00;;
2622;SDS011;1321;48.690;9.022;2023-11-19T14:38:20;15.00;;;14.50;;
2622;SDS011;1321;48.690;9.022;2023-11-19T14:40:48;15.00;;;14.47;;
2622;SDS011;1321;48.690;9.022;2023-11-19T14:43:17;15.07;;;14.57;;
2622;SDS011;1321;48.690;9.022;2023-11-19T14:45:46;15.07;;;14.67;;
2622;SDS011;1321;48.690;9.022;2023-11-19T14:48:16;15.10;;;14.70;;
2622;SDS011;1321;48.690;9.022;2023-11-19T14:50:44;15.20;;;14.70;;
2622;SDS011;1321;48.690;9.022;2023-11-19T14:53:13;15.17;;;14.70;;
2622;SDS011;1321;48.690;9.022;2023-11-19T14:55:42;14.90;;;14.50;;
2622;SDS011;1321;48.690;9.022;2023-11-19T14:58:10;15.00;;;14.60;;
2622;SDS011;1321;48.690;9.022;2023-11-19T15:00:44;15.10;;;14.70;;
2622;SDS011;1321;48.690;9.022;2023-11-19T15:03:13;15.00;;;14.60;;
2622;SDS011;1321;48.690;9.022;2023-11-19T15:05:43;15.07;;;14.67;;
2622;SDS011;1321;48.690;9.022;2023-11-19T15:08:12;14.70;;;14.40;;
2622;SDS011;1321;48.690;9.022;2023-11-19T15:10:42;15.40;;;14.90;;
2622;SDS011;1321;48.690;9.022;2023-11-19T15:13:11;15.20;;;14.67;;